Baton Rouge Metropolitan, Ryan Field
KBTR : now visible

Airfield :











YOU CAN JOIN US ON...

 
LOGIN :

Register | Disclaimer

   EN    FR    IT 

 









Legend :    VFR   Marginal VFR   IFR   Intensive IFR   Very Intensive IFR
Visi :
Ceiling :
>= 8 km
>= 3000ft
5 to 8 km
1000 to 3000 ft
1500m to 5 km
500 to 1000 ft
800 to 1500m
200 to 500 ft
< 800m
< 200 ft
Symbols :   Thunderstorms  Fog  Heavy snow  Heavy precipitations  Wind > 20 kt






- Airport Elevation : 70 ft
- IATA code : BTR


KBTR - Baton Rouge Metropolitan, Ryan Field

CURRENT METAR :
  • 080437Z 21008KT 9SM BKN010 23/22 A2995 RMK AO2 CIG 008V013 T02330217

EXPIRED METARs :
  • 080353Z 21010KT 10SM CLR 24/22 A2995 RMK AO2 SLP143 T02390217
  • 080253Z 20007KT 10SM FEW020 24/22 A2996 RMK AO2 SLP144 T02440217 53010
  • 080153Z 20008KT 10SM SCT020 25/21 A2994 RMK AO2 SLP136 T02500211

TAF KBTR
Valid from the 08 at 00:00 until the 09 at 00:00 UTC


072341Z 0800/0824 19011KT P6SM SCT029 BKN035
FM080400 19010KT P6SM OVC015
FM080600 20006KT P6SM OVC008
FM081400 24007KT P6SM BKN010
FM081700 23009KT P6SM SCT025 BKN040



MET'MAP, your aeronautical weather chart ! - Copyright ORBIFLY December 2007 - Disclaimer

ORBIFLY MET'MAP TEAM :

Programming & Development : Alexandra Zaïnal
Concept & original design : Baudouin d'Aumeries
Assistance for programming : Marc-Olivier Méhu
Technical & hardware support : Manuel Goepfert

Contact : metmap@orbifly.com




SOURCES & CREDITS :

   NOAA       Earth
Advisory